Aviation Digital Data Service (ADDS)

Output produced by METARs form (1028 UTC 20 July 2018)
found at http://aviationweather.gov/adds/metars/
 
ESTA 201020Z 27010KT CAVOK 20/12 Q1014
TAF ESTA 200807Z 2009/2018 29010KT 9999 FEW025